8°C Temp
7°C Dewpoint
% Humidity
Temperature
11 KM/H
7 MPH
6 KTS
250°
West South
West

Wind Speed
Partly Cloudy
Conditions
Pressure 1022.92 (hPa) - 30.21 (in)
Visibility 6.2 (mi) - 10.0 (km)

Current Conditions
EPKT
Location 6km (3.2mi)
Metar :EPKT 250030Z 25006KT 9999 FEW021 OVC041 08/07 Q1023
Mon 25th May 02:30 am

Airport
  Metar Aviation API Data Provided by https://www.checkwx.com/ CSS/SVG/PHP scripts by weather34.com © 2015-2020